Time;durP1;ratioP1;P1;durP2;ratioP2;P2;SDS_P1;SDS_P2;PMS_P1;PMS_P2;Temp;Humidity;BMP_temperature;BMP_pressure;BME280_temperature;BME280_humidity;BME280_pressure;Samples;Min_cycle;Max_cycle;Signal;HPM_P1;HPM_P2
2022/07/28 00:00:06;;;;;;;15.27;13.82;;;;;;;;;;5094887;28;20032;-80
2022/07/28 00:02:32;;;;;;;14.25;12.85;;;;;;;;;;5094463;28;20426;-80
2022/07/28 00:04:58;;;;;;;14.77;13.38;;;;;;;;;;5094781;28;20028;-82
2022/07/28 00:07:25;;;;;;;16.98;15.32;;;;;;;;;;5094561;28;20099;-82
2022/07/28 00:09:51;;;;;;;15.77;14.27;;;;;;;;;;5094673;28;20028;-82
2022/07/28 00:12:17;;;;;;;16.17;14.77;;;;;;;;;;5094457;28;20098;-82
2022/07/28 00:14:44;;;;;;;16.10;14.65;;;;;;;;;;5094563;28;20375;-81
2022/07/28 00:17:10;;;;;;;16.27;14.68;;;;;;;;;;5094275;28;20485;-81
2022/07/28 00:19:36;;;;;;;16.73;15.23;;;;;;;;;;5094319;28;20462;-82
2022/07/28 00:22:02;;;;;;;16.13;14.63;;;;;;;;;;5094397;28;20024;-81
2022/07/28 00:24:30;;;;;;;15.52;14.20;;;;;;;;;;5097616;28;20027;-82
2022/07/28 00:26:56;;;;;;;17.52;16.08;;;;;;;;;;5076369;28;20410;-82
2022/07/28 00:29:22;;;;;;;17.27;15.70;;;;;;;;;;5076043;28;20451;-81
2022/07/28 00:31:48;;;;;;;15.77;14.48;;;;;;;;;;5094118;28;20024;-82
2022/07/28 00:34:15;;;;;;;15.90;14.45;;;;;;;;;;5093764;28;20394;-81
2022/07/28 00:36:41;;;;;;;16.08;14.70;;;;;;;;;;5094001;28;20036;-82
2022/07/28 00:39:07;;;;;;;18.10;16.60;;;;;;;;;;5094161;28;20028;-81
2022/07/28 00:41:33;;;;;;;16.02;14.65;;;;;;;;;;5075670;28;20028;-81
2022/07/28 00:43:59;;;;;;;17.23;15.80;;;;;;;;;;5094058;28;20024;-81
2022/07/28 00:46:25;;;;;;;20.13;18.25;;;;;;;;;;5075136;28;20523;-81
2022/07/28 00:48:54;;;;;;;21.58;19.55;;;;;;;;;;5093716;28;20028;-81
2022/07/28 00:51:21;;;;;;;17.95;16.35;;;;;;;;;;5075535;28;20097;-81
2022/07/28 00:53:47;;;;;;;19.00;17.20;;;;;;;;;;5093763;28;20099;-81
2022/07/28 00:56:14;;;;;;;19.52;17.73;;;;;;;;;;5093372;28;20496;-81
2022/07/28 00:58:40;;;;;;;20.70;18.92;;;;;;;;;;5092793;28;20024;-81
2022/07/28 01:01:07;;;;;;;17.98;16.17;;;;;;;;;;5093310;28;20048;-82
2022/07/28 01:03:35;;;;;;;20.92;19.02;;;;;;;;;;5075515;28;20039;-82
2022/07/28 01:06:10;;;;;;;22.13;20.23;;;;;;;;;;5093986;28;20020;-81
2022/07/28 01:08:35;;;;;;;;;;;;;;;;;;5075976;28;20028;-81
2022/07/28 01:11:05;;;;;;;20.80;19.10;;;;;;;;;;5093599;28;19956;-82
2022/07/28 01:13:31;;;;;;;19.85;18.15;;;;;;;;;;5093549;28;20025;-82
2022/07/28 01:16:02;;;;;;;18.95;17.30;;;;;;;;;;5093653;28;20040;-81
2022/07/28 01:18:33;;;;;;;29.13;26.52;;;;;;;;;;5093847;28;20027;-81
2022/07/28 01:21:04;;;;;;;24.60;22.40;;;;;;;;;;5093465;28;20047;-82
2022/07/28 01:23:33;;;;;;;25.88;23.48;;;;;;;;;;5093713;28;20024;-82
2022/07/28 01:26:19;;;;;;;17.73;16.25;;;;;;;;;;5093406;28;20028;-80
2022/07/28 01:29:04;;;;;;;18.45;16.85;;;;;;;;;;5093464;28;20027;-82
2022/07/28 01:31:49;;;;;;;24.75;22.45;;;;;;;;;;5093417;28;20107;-79
2022/07/28 01:34:22;;;;;;;24.65;22.45;;;;;;;;;;5093372;28;20036;-79
2022/07/28 01:36:54;;;;;;;19.85;18.15;;;;;;;;;;5093218;28;20028;-82
2022/07/28 01:39:21;;;;;;;17.85;16.33;;;;;;;;;;5093059;28;20141;-81
2022/07/28 01:41:49;;;;;;;18.42;16.85;;;;;;;;;;5092971;28;20028;-82
2022/07/28 01:44:18;;;;;;;17.95;16.35;;;;;;;;;;5092755;28;20110;-82
2022/07/28 01:46:44;;;;;;;19.70;18.10;;;;;;;;;;5092698;28;20391;-82
2022/07/28 01:49:11;;;;;;;20.02;18.33;;;;;;;;;;5093050;28;20425;-82
2022/07/28 01:51:37;;;;;;;19.23;17.52;;;;;;;;;;5093017;28;20032;-82
2022/07/28 01:54:05;;;;;;;18.67;17.08;;;;;;;;;;5092437;28;20048;-82
2022/07/28 01:56:32;;;;;;;18.65;17.05;;;;;;;;;;5092828;28;20028;-82
2022/07/28 01:58:59;;;;;;;19.20;17.38;;;;;;;;;;5074444;28;20028;-83
2022/07/28 02:01:26;;;;;;;20.40;18.60;;;;;;;;;;5092700;28;20032;-83
2022/07/28 02:03:53;;;;;;;18.73;16.92;;;;;;;;;;5092886;28;20055;-82
2022/07/28 02:06:21;;;;;;;21.63;19.55;;;;;;;;;;5092849;28;20430;-82
2022/07/28 02:08:48;;;;;;;19.48;17.73;;;;;;;;;;5092922;28;20475;-82
2022/07/28 02:14:00;;;;;;;18.75;17.13;;;;;;;;;;5092244;28;20532;-81
2022/07/28 02:16:27;;;;;;;17.75;16.23;;;;;;;;;;5074389;28;20033;-82
2022/07/28 02:18:54;;;;;;;17.77;16.20;;;;;;;;;;5092393;28;20031;-82
2022/07/28 02:21:25;;;;;;;19.23;17.63;;;;;;;;;;5092537;28;20028;-83
2022/07/28 02:23:51;;;;;;;18.50;16.98;;;;;;;;;;5074057;28;20024;-83
2022/07/28 02:26:20;;;;;;;19.30;17.70;;;;;;;;;;5092393;28;20035;-82
2022/07/28 02:28:50;;;;;;;19.42;17.80;;;;;;;;;;5091519;28;20085;-83
2022/07/28 02:31:23;;;;;;;17.70;16.20;;;;;;;;;;5091445;28;20027;-82
2022/07/28 02:33:51;;;;;;;18.98;17.30;;;;;;;;;;5091571;28;20020;-83
2022/07/28 02:36:25;;;;;;;18.65;17.23;;;;;;;;;;5091356;28;20040;-83
2022/07/28 02:38:53;;;;;;;16.45;15.05;;;;;;;;;;5091597;28;20028;-84
2022/07/28 02:41:29;;;;;;;19.80;18.00;;;;;;;;;;5089151;28;20016;-84
2022/07/28 02:44:00;;;;;;;20.52;18.63;;;;;;;;;;5092001;28;20027;-83
2022/07/28 02:46:28;;;;;;;20.13;18.25;;;;;;;;;;5092107;28;20062;-82
2022/07/28 02:48:59;;;;;;;19.35;17.55;;;;;;;;;;5092363;28;20137;-86
2022/07/28 02:51:27;;;;;;;18.70;16.98;;;;;;;;;;5092083;28;20028;-83
2022/07/28 02:53:53;;;;;;;18.25;16.55;;;;;;;;;;5092354;28;20035;-84
2022/07/28 02:56:20;;;;;;;16.95;15.48;;;;;;;;;;5073831;28;20068;-82
2022/07/28 02:58:46;;;;;;;19.13;17.48;;;;;;;;;;5091398;28;20483;-83
2022/07/28 03:01:13;;;;;;;17.75;16.08;;;;;;;;;;5090916;28;20024;-83
2022/07/28 03:03:39;;;;;;;18.40;16.80;;;;;;;;;;5091545;28;20024;-83
2022/07/28 03:06:05;;;;;;;18.75;17.10;;;;;;;;;;5091186;28;20113;-84
2022/07/28 03:08:32;;;;;;;18.60;17.00;;;;;;;;;;5091180;28;20378;-83
2022/07/28 03:11:11;;;;;;;17.98;16.48;;;;;;;;;;5091306;28;20031;-84
2022/07/28 03:13:37;;;;;;;18.27;16.52;;;;;;;;;;5090281;28;20044;-84
2022/07/28 03:16:04;;;;;;;18.65;17.08;;;;;;;;;;5090837;28;20420;-82
2022/07/28 03:18:30;;;;;;;18.05;16.50;;;;;;;;;;5091875;28;20398;-84
2022/07/28 03:20:56;;;;;;;17.92;16.33;;;;;;;;;;5090948;28;20031;-84
2022/07/28 03:23:25;;;;;;;19.20;17.38;;;;;;;;;;5095411;28;20031;-84
2022/07/28 03:25:53;;;;;;;18.77;17.15;;;;;;;;;;5095862;28;20091;-82
2022/07/28 03:28:20;;;;;;;19.85;17.95;;;;;;;;;;5095674;28;20486;-82
2022/07/28 03:30:50;;;;;;;20.48;18.75;;;;;;;;;;5095972;28;20100;-84
2022/07/28 03:33:16;;;;;;;17.67;16.17;;;;;;;;;;5095599;28;20028;-84
2022/07/28 03:35:43;;;;;;;17.30;15.70;;;;;;;;;;5095660;28;20035;-82
2022/07/28 03:38:28;;;;;;;19.80;18.08;;;;;;;;;;5095436;28;20030;-84
2022/07/28 03:40:57;;;;;;;27.80;25.40;;;;;;;;;;5095360;28;20024;-83
2022/07/28 03:43:25;;;;;;;27.70;25.33;;;;;;;;;;5095515;28;20039;-84
2022/07/28 03:45:51;;;;;;;18.60;17.00;;;;;;;;;;5073523;28;20052;-83
2022/07/28 03:48:17;;;;;;;23.15;21.10;;;;;;;;;;5075175;28;20085;-84
2022/07/28 03:50:43;;;;;;;35.45;32.30;;;;;;;;;;5075089;28;20103;-83
2022/07/28 03:53:13;;;;;;;19.92;18.23;;;;;;;;;;5073728;28;20036;-83
2022/07/28 03:55:39;;;;;;;17.65;16.05;;;;;;;;;;5075076;28;20029;-85
2022/07/28 03:58:05;;;;;;;17.90;16.35;;;;;;;;;;5073440;28;20078;-86
2022/07/28 04:00:31;;;;;;;17.40;15.85;;;;;;;;;;5074873;28;20028;-84
2022/07/28 04:02:57;;;;;;;16.08;14.70;;;;;;;;;;5073107;28;20486;-85
2022/07/28 04:05:24;;;;;;;16.48;15.15;;;;;;;;;;5073541;28;20033;-85
2022/07/28 04:07:50;;;;;;;16.13;14.65;;;;;;;;;;5073504;28;20035;-84
2022/07/28 04:10:17;;;;;;;15.27;14.07;;;;;;;;;;5074947;28;20074;-85
2022/07/28 04:12:44;;;;;;;15.80;14.40;;;;;;;;;;5074814;28;20020;-83
2022/07/28 04:15:14;;;;;;;16.70;15.30;;;;;;;;;;5074542;28;20120;-84
2022/07/28 04:17:41;;;;;;;18.17;16.55;;;;;;;;;;5074788;28;20056;-83
2022/07/28 04:20:07;;;;;;;22.08;20.08;;;;;;;;;;5074523;28;20025;-85
2022/07/28 04:22:33;;;;;;;19.83;18.13;;;;;;;;;;5074627;28;20024;-83
2022/07/28 04:25:00;;;;;;;18.05;16.38;;;;;;;;;;5074387;28;20036;-85
2022/07/28 04:27:27;;;;;;;18.80;17.20;;;;;;;;;;5074486;28;20029;-82
2022/07/28 04:29:53;;;;;;;18.95;17.25;;;;;;;;;;5072980;28;20028;-83
2022/07/28 04:32:19;;;;;;;18.08;16.38;;;;;;;;;;5073133;28;20028;-83
2022/07/28 04:34:45;;;;;;;18.13;16.60;;;;;;;;;;5073179;28;20025;-84
2022/07/28 04:37:13;;;;;;;19.70;17.73;;;;;;;;;;5074206;28;20083;-83
2022/07/28 04:39:39;;;;;;;21.67;19.75;;;;;;;;;;5072958;28;20036;-85
2022/07/28 04:42:06;;;;;;;20.13;18.30;;;;;;;;;;5074001;28;20463;-86
2022/07/28 04:44:34;;;;;;;22.75;20.75;;;;;;;;;;5074058;28;20135;-83
2022/07/28 04:47:00;;;;;;;23.25;21.00;;;;;;;;;;5094153;28;20094;-83
2022/07/28 04:49:26;;;;;;;20.55;18.77;;;;;;;;;;5076202;28;20424;-84
2022/07/28 04:51:52;;;;;;;19.45;17.77;;;;;;;;;;5094176;28;20023;-85
2022/07/28 04:54:19;;;;;;;21.48;19.48;;;;;;;;;;5094079;28;20091;-83
2022/07/28 04:56:45;;;;;;;20.73;18.88;;;;;;;;;;5094243;28;20062;-84
2022/07/28 04:59:11;;;;;;;20.92;19.05;;;;;;;;;;5093571;28;20028;-85
2022/07/28 05:01:38;;;;;;;19.63;17.92;;;;;;;;;;5093728;28;20036;-83
2022/07/28 05:04:07;;;;;;;19.60;17.70;;;;;;;;;;5074925;28;20058;-82
2022/07/28 05:06:36;;;;;;;18.95;17.42;;;;;;;;;;5093933;28;20458;-81
2022/07/28 05:09:03;;;;;;;18.35;16.75;;;;;;;;;;5093578;28;20028;-80
2022/07/28 05:11:29;;;;;;;17.20;15.68;;;;;;;;;;5093976;28;20051;-81
2022/07/28 05:13:55;;;;;;;18.90;17.05;;;;;;;;;;5093800;28;20028;-81
2022/07/28 05:16:21;;;;;;;18.23;16.55;;;;;;;;;;5093850;28;20119;-81
2022/07/28 05:18:47;;;;;;;17.90;16.25;;;;;;;;;;5093579;28;20023;-83
2022/07/28 05:21:13;;;;;;;17.02;15.52;;;;;;;;;;5093241;28;20052;-82
2022/07/28 05:23:39;;;;;;;15.48;14.18;;;;;;;;;;5093816;28;20027;-82
2022/07/28 05:26:06;;;;;;;14.43;13.13;;;;;;;;;;5093402;28;20028;-83
2022/07/28 05:28:32;;;;;;;12.82;11.73;;;;;;;;;;5073334;28;20027;-80
2022/07/28 05:30:58;;;;;;;15.20;13.82;;;;;;;;;;5092324;28;20097;-80
2022/07/28 05:33:24;;;;;;;13.07;11.98;;;;;;;;;;5086375;28;20087;-81
2022/07/28 05:35:58;;;;;;;14.05;12.65;;;;;;;;;;5083766;28;20514;-82
2022/07/28 05:38:24;;;;;;;16.33;12.10;;;;;;;;;;5075803;28;20085;-81
2022/07/28 05:40:51;;;;;;;16.40;14.85;;;;;;;;;;5080345;28;20042;-82
2022/07/28 05:43:17;;;;;;;12.57;11.38;;;;;;;;;;5090500;28;20533;-81
2022/07/28 05:45:43;;;;;;;39.35;35.88;;;;;;;;;;5089194;28;20376;-82
2022/07/28 05:48:10;;;;;;;21.13;19.40;;;;;;;;;;5086275;28;20055;-81
2022/07/28 05:50:36;;;;;;;12.73;11.63;;;;;;;;;;5087064;28;20067;-82
2022/07/28 05:53:02;;;;;;;13.18;11.95;;;;;;;;;;5087118;28;20025;-83
2022/07/28 05:55:28;;;;;;;12.15;11.02;;;;;;;;;;5082545;28;20057;-82
2022/07/28 05:57:58;;;;;;;10.43;9.43;;;;;;;;;;5090855;28;20470;-83
2022/07/28 06:00:25;;;;;;;9.95;9.10;;;;;;;;;;5088069;28;20035;-81
2022/07/28 06:02:51;;;;;;;14.88;13.55;;;;;;;;;;5096617;28;20028;-81
2022/07/28 06:05:18;;;;;;;13.48;12.15;;;;;;;;;;5071982;28;20024;-80
2022/07/28 06:07:45;;;;;;;12.02;10.93;;;;;;;;;;5072923;28;20039;-80
2022/07/28 06:10:12;;;;;;;10.82;9.70;;;;;;;;;;5096996;28;20024;-79
2022/07/28 06:12:39;;;;;;;10.80;9.70;;;;;;;;;;5092285;28;20032;-82
2022/07/28 06:15:06;;;;;;;9.80;8.90;;;;;;;;;;5092679;28;20427;-81
2022/07/28 06:17:32;;;;;;;9.75;8.88;;;;;;;;;;5095909;28;20032;-80
2022/07/28 06:19:58;;;;;;;13.57;12.27;;;;;;;;;;5092296;28;20448;-80
2022/07/28 06:22:24;;;;;;;16.30;14.95;;;;;;;;;;5090996;28;20028;-79
2022/07/28 06:24:50;;;;;;;11.27;10.23;;;;;;;;;;5088442;28;20063;-79
2022/07/28 06:27:16;;;;;;;10.27;9.38;;;;;;;;;;5088690;28;20066;-81
2022/07/28 06:29:42;;;;;;;11.32;10.27;;;;;;;;;;5071805;28;20455;-81
2022/07/28 06:32:09;;;;;;;10.75;9.80;;;;;;;;;;5092811;28;20020;-79
2022/07/28 06:34:35;;;;;;;11.90;10.82;;;;;;;;;;5094483;28;20039;-80
2022/07/28 06:37:01;;;;;;;12.82;11.73;;;;;;;;;;5085674;28;20546;-80
2022/07/28 06:39:27;;;;;;;13.82;12.50;;;;;;;;;;5087069;28;20107;-78
2022/07/28 06:41:53;;;;;;;17.92;16.33;;;;;;;;;;5090872;28;20028;-80
2022/07/28 06:44:19;;;;;;;15.85;14.38;;;;;;;;;;5090492;28;20379;-81
2022/07/28 06:46:45;;;;;;;15.52;14.10;;;;;;;;;;5089902;28;20111;-82
2022/07/28 06:49:11;;;;;;;12.80;11.70;;;;;;;;;;5090075;28;20192;-80
2022/07/28 06:51:37;;;;;;;124.82;47.38;;;;;;;;;;5089768;28;20028;-83
2022/07/28 06:54:03;;;;;;;113.47;46.78;;;;;;;;;;5087374;28;20024;-81
2022/07/28 06:56:29;;;;;;;103.40;57.28;;;;;;;;;;5089079;28;20050;-82
2022/07/28 06:58:56;;;;;;;114.45;46.75;;;;;;;;;;5094651;28;20050;-83
2022/07/28 07:01:22;;;;;;;162.80;64.38;;;;;;;;;;5095039;28;20035;-83
2022/07/28 07:03:48;;;;;;;169.02;66.38;;;;;;;;;;5100525;28;20065;-80
2022/07/28 07:06:14;;;;;;;95.97;44.13;;;;;;;;;;5103020;28;20027;-82
2022/07/28 07:08:41;;;;;;;239.93;91.65;;;;;;;;;;5095316;28;20054;-81
2022/07/28 07:11:07;;;;;;;417.33;152.98;;;;;;;;;;5090717;28;20077;-81
2022/07/28 07:13:33;;;;;;;336.77;121.70;;;;;;;;;;5093231;28;20051;-84
2022/07/28 07:15:59;;;;;;;194.32;81.00;;;;;;;;;;5109076;28;20513;-82
2022/07/28 07:18:25;;;;;;;338.35;131.43;;;;;;;;;;5110653;28;20059;-81
2022/07/28 07:20:53;;;;;;;435.85;169.70;;;;;;;;;;5105774;28;20023;-81
2022/07/28 07:23:19;;;;;;;258.52;96.50;;;;;;;;;;5077340;28;20100;-80
2022/07/28 07:25:45;;;;;;;48.35;26.33;;;;;;;;;;5094656;28;20479;-81
2022/07/28 07:28:11;;;;;;;164.18;62.05;;;;;;;;;;5095786;28;20050;-79
2022/07/28 07:30:37;;;;;;;77.55;34.72;;;;;;;;;;5084359;28;20117;-80
2022/07/28 07:33:03;;;;;;;41.17;28.20;;;;;;;;;;5073556;28;20108;-81
2022/07/28 07:35:30;;;;;;;38.90;21.67;;;;;;;;;;5088712;28;20033;-82
2022/07/28 07:37:56;;;;;;;18.42;14.52;;;;;;;;;;5100043;28;20063;-81
2022/07/28 07:40:22;;;;;;;12.80;11.60;;;;;;;;;;5114355;28;20081;-79
2022/07/28 07:42:48;;;;;;;13.25;11.43;;;;;;;;;;5092545;28;20028;-80
2022/07/28 07:45:14;;;;;;;11.80;10.68;;;;;;;;;;5080138;28;20055;-79
2022/07/28 07:47:40;;;;;;;12.52;11.23;;;;;;;;;;5099549;28;20402;-80
2022/07/28 07:50:06;;;;;;;33.50;30.33;;;;;;;;;;5075673;28;20062;-80
2022/07/28 07:52:33;;;;;;;24.30;22.27;;;;;;;;;;5093303;28;20490;-79
2022/07/28 07:54:59;;;;;;;13.32;12.32;;;;;;;;;;5093161;28;20027;-81
2022/07/28 07:57:25;;;;;;;11.05;10.05;;;;;;;;;;5087358;28;20036;-79
2022/07/28 07:59:51;;;;;;;12.63;11.63;;;;;;;;;;5083373;28;20111;-81
2022/07/28 08:02:17;;;;;;;12.80;11.70;;;;;;;;;;5089118;28;20471;-82
2022/07/28 08:04:43;;;;;;;12.05;11.05;;;;;;;;;;5093572;28;20024;-79
2022/07/28 08:07:09;;;;;;;11.93;10.93;;;;;;;;;;5074499;28;20444;-80
2022/07/28 08:09:35;;;;;;;30.20;18.38;;;;;;;;;;5093004;28;20107;-80
2022/07/28 08:12:02;;;;;;;17.50;13.25;;;;;;;;;;5089613;28;20418;-79
2022/07/28 08:14:28;;;;;;;19.20;14.52;;;;;;;;;;5075438;28;20032;-79
2022/07/28 08:16:58;;;;;;;86.85;38.10;;;;;;;;;;5093344;28;20035;-79
2022/07/28 08:19:24;;;;;;;64.38;30.75;;;;;;;;;;5092980;28;20118;-79
2022/07/28 08:21:50;;;;;;;29.67;18.42;;;;;;;;;;5089500;28;20119;-82
2022/07/28 08:24:17;;;;;;;16.67;13.48;;;;;;;;;;5091622;28;20039;-80
2022/07/28 08:26:43;;;;;;;90.22;41.10;;;;;;;;;;5089029;28;20028;-79
2022/07/28 08:29:09;;;;;;;277.30;112.32;;;;;;;;;;5091450;28;20028;-78
2022/07/28 08:31:35;;;;;;;38.78;23.35;;;;;;;;;;5095077;28;20040;-79
2022/07/28 08:34:02;;;;;;;92.43;43.17;;;;;;;;;;5089986;28;20028;-80
2022/07/28 08:36:30;;;;;;;68.30;30.75;;;;;;;;;;5091760;28;20027;-78
2022/07/28 08:38:57;;;;;;;43.75;24.75;;;;;;;;;;5091373;28;20552;-78
2022/07/28 08:41:27;;;;;;;51.10;26.75;;;;;;;;;;5081342;28;20067;-78
2022/07/28 08:43:53;;;;;;;35.38;19.65;;;;;;;;;;5082249;28;20142;-78
2022/07/28 08:46:24;;;;;;;13.00;10.30;;;;;;;;;;5074686;28;20056;-78
2022/07/28 08:48:50;;;;;;;115.43;44.42;;;;;;;;;;5106818;28;20024;-81
2022/07/28 08:51:17;;;;;;;50.83;25.90;;;;;;;;;;5106463;28;20032;-78
2022/07/28 08:53:43;;;;;;;18.17;12.77;;;;;;;;;;5092153;28;20103;-80
2022/07/28 08:56:12;;;;;;;11.68;10.55;;;;;;;;;;5089997;28;20036;-79
2022/07/28 08:58:39;;;;;;;30.98;17.33;;;;;;;;;;5092191;28;20031;-77
2022/07/28 09:01:09;;;;;;;39.53;21.33;;;;;;;;;;5083752;28;20055;-76
2022/07/28 09:03:36;;;;;;;21.67;14.30;;;;;;;;;;5092833;28;20030;-77
2022/07/28 09:06:03;;;;;;;23.35;15.57;;;;;;;;;;5091416;28;20024;-79
2022/07/28 09:08:29;;;;;;;14.35;12.98;;;;;;;;;;5090287;28;20056;-77
2022/07/28 09:10:55;;;;;;;11.18;10.00;;;;;;;;;;5092039;28;20538;-77
2022/07/28 09:13:21;;;;;;;10.35;9.18;;;;;;;;;;5091643;28;20056;-77
2022/07/28 09:15:47;;;;;;;8.52;7.90;;;;;;;;;;5089498;28;20032;-77
2022/07/28 09:20:49;;;;;;;13.38;9.32;;;;;;;;;;5027521;23;20089;-77
2022/07/28 09:23:15;;;;;;;10.10;8.95;;;;;;;;;;5011535;28;20040;-77
2022/07/28 09:25:42;;;;;;;9.52;8.65;;;;;;;;;;5011216;28;20072;-79
2022/07/28 09:28:09;;;;;;;8.77;7.97;;;;;;;;;;5010343;28;20042;-78
2022/07/28 09:30:37;;;;;;;8.80;7.97;;;;;;;;;;5010933;28;20168;-77
2022/07/28 09:33:21;;;;;;;9.13;8.32;;;;;;;;;;5017671;28;20021;-76
2022/07/28 09:35:52;;;;;;;15.93;14.45;;;;;;;;;;5019311;28;20044;-76
2022/07/28 09:38:22;;;;;;;10.52;8.85;;;;;;;;;;5021725;28;20456;-76
2022/07/28 09:40:58;;;;;;;10.05;8.50;;;;;;;;;;5013034;28;20030;-78
2022/07/28 09:43:38;;;;;;;9.20;8.40;;;;;;;;;;5017510;28;20037;-77
2022/07/28 09:46:08;;;;;;;9.77;8.88;;;;;;;;;;5018743;28;20454;-79
2022/07/28 09:48:35;;;;;;;9.60;8.60;;;;;;;;;;5016624;28;20034;-78
2022/07/28 09:51:20;;;;;;;8.68;7.97;;;;;;;;;;5015834;28;20060;-77
2022/07/28 09:53:46;;;;;;;8.25;7.63;;;;;;;;;;5000548;28;20037;-77
2022/07/28 09:56:12;;;;;;;13.25;9.32;;;;;;;;;;5010822;28;20048;-77
2022/07/28 09:58:39;;;;;;;7.82;7.13;;;;;;;;;;5013404;28;20037;-77
2022/07/28 10:01:19;;;;;;;7.50;6.90;;;;;;;;;;5018199;28;20068;-76
2022/07/28 10:03:48;;;;;;;7.75;6.78;;;;;;;;;;5015958;28;20032;-77
2022/07/28 10:06:15;;;;;;;8.32;7.60;;;;;;;;;;5017916;28;20045;-76
2022/07/28 10:08:43;;;;;;;9.52;8.63;;;;;;;;;;5006607;28;20033;-77
2022/07/28 10:11:10;;;;;;;8.80;8.05;;;;;;;;;;5009067;28;20026;-78
2022/07/28 10:13:36;;;;;;;8.30;7.60;;;;;;;;;;5019316;28;20040;-77
2022/07/28 10:16:11;;;;;;;8.68;7.97;;;;;;;;;;5018029;28;20045;-75
2022/07/28 10:18:40;;;;;;;9.00;8.30;;;;;;;;;;5013789;28;20061;-76
2022/07/28 10:21:08;;;;;;;8.00;7.40;;;;;;;;;;5013848;28;20030;-76
2022/07/28 10:23:38;;;;;;;8.57;7.97;;;;;;;;;;5012467;28;20022;-76
2022/07/28 10:26:09;;;;;;;9.00;8.30;;;;;;;;;;5017481;28;20032;-76
2022/07/28 10:28:36;;;;;;;7.22;6.57;;;;;;;;;;5018109;28;20080;-77
2022/07/28 10:31:04;;;;;;;8.50;7.80;;;;;;;;;;5011141;28;20041;-76
2022/07/28 10:33:31;;;;;;;12.50;11.40;;;;;;;;;;5017582;28;20029;-77
2022/07/28 10:35:57;;;;;;;9.43;8.63;;;;;;;;;;5014643;28;20033;-78
2022/07/28 10:38:28;;;;;;;7.30;6.70;;;;;;;;;;5020073;28;20030;-78
2022/07/28 10:40:55;;;;;;;7.70;7.10;;;;;;;;;;5013141;28;20544;-78
2022/07/28 10:43:23;;;;;;;8.75;8.05;;;;;;;;;;5012143;28;20042;-80
2022/07/28 10:45:49;;;;;;;8.20;7.50;;;;;;;;;;5009924;28;20030;-78
2022/07/28 10:48:16;;;;;;;8.23;7.53;;;;;;;;;;5014243;28;20146;-78
2022/07/28 10:50:42;;;;;;;11.48;10.57;;;;;;;;;;5008109;28;20022;-84
2022/07/28 10:53:11;;;;;;;6.55;6.03;;;;;;;;;;5013095;28;20041;-78
2022/07/28 10:55:50;;;;;;;10.65;9.75;;;;;;;;;;5013412;28;20792;-81
2022/07/28 10:58:16;;;;;;;8.00;7.22;;;;;;;;;;5013467;28;20030;-81
2022/07/28 11:00:44;;;;;;;7.63;6.65;;;;;;;;;;5009593;28;20036;-80
2022/07/28 11:03:10;;;;;;;6.18;5.60;;;;;;;;;;5014758;28;20489;-79
2022/07/28 11:05:38;;;;;;;6.57;6.05;;;;;;;;;;5018297;28;20108;-77
2022/07/28 11:08:06;;;;;;;6.80;6.20;;;;;;;;;;5013018;28;20117;-80
2022/07/28 11:10:50;;;;;;;6.95;6.45;;;;;;;;;;5010818;28;20113;-79
2022/07/28 11:13:34;;;;;;;7.03;6.40;;;;;;;;;;5010675;28;20124;-81
2022/07/28 11:16:01;;;;;;;;;;;;;;;;;;5009000;28;20046;-80
2022/07/28 11:36:58;;;;;;;6.07;5.68;;;;;;;;;;5078783;27;1482579;-81
2022/07/28 11:39:25;;;;;;;6.13;5.63;;;;;;;;;;5105526;28;20024;-83
2022/07/28 11:41:52;;;;;;;4.97;4.65;;;;;;;;;;5107107;28;20621;-79
2022/07/28 11:44:28;;;;;;;6.00;5.50;;;;;;;;;;5069165;28;20474;-80
2022/07/28 11:47:15;;;;;;;26.27;24.20;;;;;;;;;;5103587;28;20359;-81
2022/07/28 11:49:41;;;;;;;10.07;9.30;;;;;;;;;;5105291;28;20031;-81
2022/07/28 11:52:09;;;;;;;8.68;7.97;;;;;;;;;;5103879;28;20048;-81
2022/07/28 11:54:36;;;;;;;5.60;5.20;;;;;;;;;;5103397;28;20024;-79
2022/07/28 11:57:03;;;;;;;6.63;5.95;;;;;;;;;;5104625;28;20167;-80
2022/07/28 11:59:50;;;;;;;11.40;10.40;;;;;;;;;;5106274;28;20024;-80
2022/07/28 12:02:20;;;;;;;6.70;6.20;;;;;;;;;;5101946;28;20454;-79
2022/07/28 12:04:54;;;;;;;6.18;5.57;;;;;;;;;;5103921;28;20032;-78
2022/07/28 12:07:26;;;;;;;5.95;5.45;;;;;;;;;;5101919;28;20386;-80
2022/07/28 12:09:52;;;;;;;5.25;4.85;;;;;;;;;;5101216;28;20023;-80
2022/07/28 12:12:18;;;;;;;5.78;5.28;;;;;;;;;;5104422;28;20031;-80
2022/07/28 12:14:45;;;;;;;7.22;4.75;;;;;;;;;;5101628;28;20012;-81
2022/07/28 12:17:13;;;;;;;5.07;4.40;;;;;;;;;;5099052;28;20059;-79
2022/07/28 12:19:39;;;;;;;5.85;5.35;;;;;;;;;;5101069;28;20035;-80
2022/07/28 12:22:24;;;;;;;17.30;15.98;;;;;;;;;;5101762;28;20028;-78
2022/07/28 12:24:56;;;;;;;8.95;8.32;;;;;;;;;;5103518;28;20509;-79
2022/07/28 12:27:26;;;;;;;10.82;9.93;;;;;;;;;;5106183;28;20445;-79
2022/07/28 12:30:01;;;;;;;6.78;6.20;;;;;;;;;;5091064;28;20037;-77
2022/07/28 12:32:31;;;;;;;6.05;5.65;;;;;;;;;;5093268;28;20032;-80
2022/07/28 12:34:57;;;;;;;6.00;5.40;;;;;;;;;;5082668;28;20129;-80
2022/07/28 12:37:24;;;;;;;8.20;7.40;;;;;;;;;;5081197;28;20502;-79
2022/07/28 12:39:51;;;;;;;9.13;8.20;;;;;;;;;;5093727;28;20031;-82
2022/07/28 12:42:18;;;;;;;8.23;7.63;;;;;;;;;;5093749;28;20438;-79
2022/07/28 12:44:47;;;;;;;7.28;6.78;;;;;;;;;;5089915;28;20475;-80
2022/07/28 12:47:14;;;;;;;8.85;8.15;;;;;;;;;;5071494;28;20066;-81
2022/07/28 12:49:41;;;;;;;13.93;11.23;;;;;;;;;;5090233;28;20028;-80
2022/07/28 12:52:14;;;;;;;16.95;12.95;;;;;;;;;;5081852;28;20020;-81
2022/07/28 12:54:40;;;;;;;20.83;13.65;;;;;;;;;;5083589;28;20027;-82
2022/07/28 12:57:06;;;;;;;10.43;9.30;;;;;;;;;;5077516;28;20024;-80
2022/07/28 12:59:33;;;;;;;35.20;22.30;;;;;;;;;;5079737;28;20024;-80
2022/07/28 13:01:59;;;;;;;30.33;19.00;;;;;;;;;;5094370;28;20046;-79
2022/07/28 13:04:43;;;;;;;39.92;23.35;;;;;;;;;;5093837;28;20035;-81
2022/07/28 13:07:12;;;;;;;46.63;26.02;;;;;;;;;;5094188;28;20378;-80
2022/07/28 13:09:44;;;;;;;46.53;27.00;;;;;;;;;;5094344;28;20081;-80
2022/07/28 13:12:17;;;;;;;79.75;38.45;;;;;;;;;;5094310;28;20528;-79
2022/07/28 13:14:43;;;;;;;;;;;;;;;;;;5094693;28;20036;-79
2022/07/28 13:17:10;;;;;;;8.93;8.23;;;;;;;;;;5093909;28;19911;-80
2022/07/28 13:19:37;;;;;;;8.45;7.75;;;;;;;;;;5071782;28;20029;-79
2022/07/28 13:22:03;;;;;;;7.78;7.07;;;;;;;;;;5089160;28;20036;-80
2022/07/28 13:24:29;;;;;;;13.40;9.63;;;;;;;;;;5094080;28;20417;-81
2022/07/28 13:26:56;;;;;;;10.23;9.32;;;;;;;;;;5094275;28;20024;-84
2022/07/28 13:29:23;;;;;;;11.65;10.55;;;;;;;;;;5093732;28;20030;-83
2022/07/28 13:31:49;;;;;;;10.50;9.60;;;;;;;;;;5094360;28;20115;-83
2022/07/28 13:34:15;;;;;;;8.77;8.07;;;;;;;;;;5094055;28;20466;-81
2022/07/28 13:36:41;;;;;;;10.32;9.35;;;;;;;;;;5087030;28;20053;-85
2022/07/28 13:39:09;;;;;;;9.32;8.55;;;;;;;;;;5081179;28;20489;-82
2022/07/28 13:41:36;;;;;;;9.70;8.98;;;;;;;;;;5082177;28;20032;-81
2022/07/28 13:44:02;;;;;;;10.30;9.40;;;;;;;;;;5092964;28;20122;-83
2022/07/28 13:46:28;;;;;;;9.88;9.10;;;;;;;;;;5092079;28;20063;-83
2022/07/28 13:48:55;;;;;;;10.93;10.13;;;;;;;;;;5090548;28;20505;-82
2022/07/28 13:51:21;;;;;;;10.25;9.48;;;;;;;;;;5093496;28;20027;-82
2022/07/28 13:53:47;;;;;;;10.55;9.65;;;;;;;;;;5096685;28;20079;-81
2022/07/28 13:56:13;;;;;;;10.60;9.80;;;;;;;;;;5092951;28;20608;-82
2022/07/28 13:58:39;;;;;;;10.07;9.20;;;;;;;;;;5094683;28;20028;-82
2022/07/28 14:01:05;;;;;;;9.65;8.85;;;;;;;;;;5093667;28;20474;-82
2022/07/28 14:03:32;;;;;;;10.40;9.63;;;;;;;;;;5093560;28;20031;-82
2022/07/28 14:05:58;;;;;;;11.73;10.73;;;;;;;;;;5093234;28;20032;-81
2022/07/28 14:08:25;;;;;;;10.85;10.05;;;;;;;;;;5093449;28;20032;-81
2022/07/28 14:10:53;;;;;;;14.20;13.07;;;;;;;;;;5097767;28;20028;-82
2022/07/28 14:13:19;;;;;;;11.32;10.43;;;;;;;;;;5094062;28;20142;-82
2022/07/28 14:15:46;;;;;;;11.70;10.80;;;;;;;;;;5093760;28;20035;-81
2022/07/28 14:18:12;;;;;;;10.82;10.02;;;;;;;;;;5111659;28;20490;-81
2022/07/28 14:20:39;;;;;;;11.00;9.90;;;;;;;;;;5103577;28;20035;-81
2022/07/28 14:23:05;;;;;;;10.80;9.90;;;;;;;;;;5092971;28;20107;-81
2022/07/28 14:25:32;;;;;;;10.75;9.75;;;;;;;;;;5092784;28;20035;-81
2022/07/28 14:27:58;;;;;;;11.50;10.65;;;;;;;;;;5093690;28;20035;-81
2022/07/28 14:30:24;;;;;;;11.23;10.13;;;;;;;;;;5091973;28;20032;-81
2022/07/28 14:32:51;;;;;;;11.98;11.07;;;;;;;;;;5091724;28;20084;-81
2022/07/28 14:35:18;;;;;;;10.75;9.95;;;;;;;;;;5075639;28;20047;-81
2022/07/28 14:37:44;;;;;;;11.25;10.35;;;;;;;;;;5071548;28;20028;-80
2022/07/28 14:40:10;;;;;;;11.13;10.23;;;;;;;;;;5072415;28;20024;-80
2022/07/28 14:42:36;;;;;;;12.57;11.52;;;;;;;;;;5072697;28;20032;-81
2022/07/28 14:45:04;;;;;;;10.98;10.18;;;;;;;;;;5072866;28;20383;-81
2022/07/28 14:47:30;;;;;;;11.38;10.43;;;;;;;;;;5073739;28;20039;-81
2022/07/28 14:49:56;;;;;;;10.70;9.85;;;;;;;;;;5092996;28;20028;-81